createdAt,value
2019-03-18T00:01:41.225Z,100108.95
2019-03-18T00:04:10.484Z,100114.09
2019-03-18T00:06:39.741Z,100104.29
2019-03-18T00:09:08.885Z,100107.61
2019-03-18T00:11:38.345Z,100113.43
2019-03-18T00:14:07.396Z,100111.45
2019-03-18T00:16:36.692Z,100108.77
2019-03-18T00:19:05.743Z,100104.96
2019-03-18T00:21:35.008Z,100109.31
2019-03-18T00:24:04.239Z,100099.05
2019-03-18T00:26:33.400Z,100101.37
2019-03-18T00:29:04.677Z,100101.06
2019-03-18T00:31:33.756Z,100102.90
2019-03-18T00:34:02.949Z,100106.91
2019-03-18T00:36:32.335Z,100118.67
2019-03-18T00:39:01.422Z,100110.36
2019-03-18T00:41:30.821Z,100118.84
2019-03-18T00:44:00.190Z,100117.81
2019-03-18T00:46:29.223Z,100113.65
2019-03-18T00:48:58.420Z,100110.18
2019-03-18T00:51:27.722Z,100108.85
2019-03-18T00:53:56.976Z,100106.80
2019-03-18T00:56:27.953Z,100106.16
2019-03-18T00:58:57.544Z,100106.83
2019-03-18T01:01:26.588Z,100106.68
2019-03-18T01:03:55.773Z,100109.30
2019-03-18T01:06:25.019Z,100106.83
2019-03-18T01:08:54.255Z,100106.98
2019-03-18T01:11:23.278Z,100102.49
2019-03-18T01:13:52.729Z,100102.98
2019-03-18T01:16:21.794Z,100094.31
2019-03-18T01:18:51.159Z,100091.86
2019-03-18T01:21:20.193Z,100099.02
2019-03-18T01:23:49.432Z,100097.17
2019-03-18T01:26:18.713Z,100093.01
2019-03-18T01:28:47.925Z,100093.19
2019-03-18T01:31:17.188Z,100099.52
2019-03-18T01:33:46.256Z,100095.38
2019-03-18T01:36:15.477Z,100100.18
2019-03-18T01:38:46.490Z,100107.50
2019-03-18T01:41:15.494Z,100114.98
2019-03-18T01:43:44.533Z,100111.00
2019-03-18T01:46:13.526Z,100117.45
2019-03-18T01:48:43.031Z,100117.75
2019-03-18T01:51:12.079Z,100116.22
2019-03-18T01:53:41.122Z,100117.72
2019-03-18T01:56:10.301Z,100114.54
2019-03-18T01:58:39.517Z,100118.36
2019-03-18T02:01:08.715Z,100114.71
2019-03-18T02:03:37.904Z,100115.27
2019-03-18T02:06:07.295Z,100121.05
2019-03-18T02:08:36.424Z,100123.55
2019-03-18T02:11:05.759Z,100122.89
2019-03-18T02:13:34.874Z,100121.77
2019-03-18T02:16:04.186Z,100129.55
2019-03-18T02:18:33.338Z,100127.89
2019-03-18T02:21:02.396Z,100132.11
2019-03-18T02:23:31.667Z,100125.98
2019-03-18T02:26:01.069Z,100126.61
2019-03-18T02:28:30.136Z,100119.31
2019-03-18T02:30:59.462Z,100125.16
2019-03-18T02:33:28.595Z,100124.98
2019-03-18T02:35:57.899Z,100131.64
2019-03-18T02:38:27.104Z,100131.28
2019-03-18T02:40:56.299Z,100135.80
2019-03-18T02:43:25.594Z,100136.27
2019-03-18T02:46:09.387Z,100141.42
2019-03-18T02:48:25.536Z,100136.79
2019-03-18T02:50:54.775Z,100132.28
2019-03-18T02:53:23.850Z,100136.09
2019-03-18T02:55:52.930Z,100142.70
2019-03-18T02:58:21.930Z,100133.61
2019-03-18T03:00:51.156Z,100138.73
2019-03-18T03:03:20.216Z,100140.75
2019-03-18T03:05:49.565Z,100132.94
2019-03-18T03:08:18.648Z,100135.06
2019-03-18T03:10:47.880Z,100131.10
2019-03-18T03:13:17.237Z,100133.73
2019-03-18T03:15:46.524Z,100135.23
2019-03-18T03:18:15.647Z,100138.73
2019-03-18T03:20:45.141Z,100136.10
2019-03-18T03:23:14.196Z,100139.38
2019-03-18T03:25:43.297Z,100145.37
2019-03-18T03:28:12.521Z,100148.87
2019-03-18T03:30:41.716Z,100143.86
2019-03-18T03:33:10.933Z,100139.88
2019-03-18T03:35:40.111Z,100136.56
2019-03-18T03:38:09.417Z,100150.91
2019-03-18T03:40:38.699Z,100147.75
2019-03-18T03:43:07.883Z,100162.08
2019-03-18T03:45:37.104Z,100159.75
2019-03-18T03:48:06.309Z,100160.91
2019-03-18T03:50:35.592Z,100160.77
2019-03-18T03:53:05.110Z,100167.91
2019-03-18T03:55:34.107Z,100165.11
2019-03-18T03:58:03.158Z,100166.11
2019-03-18T04:00:32.386Z,100176.58
2019-03-18T04:03:01.781Z,100177.89
2019-03-18T04:05:30.837Z,100180.25
2019-03-18T04:08:00.137Z,100179.09
2019-03-18T04:10:29.322Z,100181.09
2019-03-18T04:12:58.424Z,100181.09
2019-03-18T04:15:27.711Z,100181.10
2019-03-18T04:17:56.901Z,100180.94
2019-03-18T04:20:26.096Z,100183.08
2019-03-18T04:22:55.411Z,100182.94
2019-03-18T04:25:24.601Z,100177.59
2019-03-18T04:27:53.792Z,100188.58
2019-03-18T04:30:23.030Z,100179.76
2019-03-18T04:32:52.267Z,100190.06
2019-03-18T04:35:21.537Z,100190.39
2019-03-18T04:37:50.661Z,100192.73
2019-03-18T04:40:19.757Z,100191.41
2019-03-18T04:42:49.504Z,100176.93
2019-03-18T04:45:18.530Z,100177.59
2019-03-18T04:47:47.563Z,100179.11
2019-03-18T04:50:16.760Z,100190.73
2019-03-18T04:52:45.973Z,100199.23
2019-03-18T04:55:15.289Z,100208.52
2019-03-18T04:57:44.455Z,100201.39
2019-03-18T05:00:13.815Z,100205.22
2019-03-18T05:02:42.831Z,100212.67
2019-03-18T05:05:12.156Z,100212.67
2019-03-18T05:07:41.397Z,100213.84
2019-03-18T05:10:10.570Z,100224.64
2019-03-18T05:12:39.864Z,100224.64
2019-03-18T05:15:08.968Z,100229.79
2019-03-18T05:17:38.302Z,100232.14
2019-03-18T05:20:07.665Z,100232.14
2019-03-18T05:22:36.743Z,100244.09
2019-03-18T05:25:05.969Z,100237.45
2019-03-18T05:27:35.070Z,100251.23
2019-03-18T05:30:04.381Z,100251.23
2019-03-18T05:32:33.582Z,100257.70
2019-03-18T05:35:02.757Z,100259.88
2019-03-18T05:37:32.112Z,100268.84
2019-03-18T05:40:01.138Z,100274.99
2019-03-18T05:42:30.426Z,100272.66
2019-03-18T05:45:00.034Z,100282.97
2019-03-18T05:47:38.587Z,100288.13
2019-03-18T05:50:00.098Z,100287.11
2019-03-18T05:52:29.211Z,100298.75
2019-03-18T05:54:58.635Z,100301.24
2019-03-18T05:57:27.800Z,100308.05
2019-03-18T05:59:57.034Z,100309.71
2019-03-18T06:02:26.369Z,100312.72
2019-03-18T06:04:55.420Z,100313.70
2019-03-18T06:07:24.667Z,100327.36
2019-03-18T06:09:53.851Z,100327.36
2019-03-18T06:12:23.102Z,100326.36
2019-03-18T06:14:52.398Z,100333.52
2019-03-18T06:17:21.416Z,100337.82
2019-03-18T06:19:50.857Z,100337.82
2019-03-18T06:22:20.007Z,100345.29
2019-03-18T06:24:49.122Z,100345.13
2019-03-18T06:27:18.420Z,100347.97
2019-03-18T06:29:47.654Z,100347.97
2019-03-18T06:32:16.861Z,100348.81
2019-03-18T06:34:46.116Z,100348.97
2019-03-18T06:37:15.297Z,100362.78
2019-03-18T06:39:44.388Z,100359.45
2019-03-18T06:42:13.796Z,100362.77
2019-03-18T06:44:43.002Z,100373.09
2019-03-18T06:47:12.287Z,100374.27
2019-03-18T06:49:41.352Z,100371.77
2019-03-18T06:52:10.617Z,100375.73
2019-03-18T06:54:39.835Z,100375.73
2019-03-18T06:57:09.083Z,100378.06
2019-03-18T06:59:39.195Z,100379.73
2019-03-18T07:02:08.503Z,100387.88
2019-03-18T07:04:37.866Z,100389.56
2019-03-18T07:07:06.896Z,100397.69
2019-03-18T07:09:36.162Z,100397.69
2019-03-18T07:12:05.388Z,100398.90
2019-03-18T07:14:34.807Z,100398.56
2019-03-18T07:17:03.837Z,100397.56
2019-03-18T07:19:33.153Z,100403.23
2019-03-18T07:22:02.246Z,100414.36
2019-03-18T07:24:31.490Z,100413.00
2019-03-18T07:27:00.726Z,100424.98
2019-03-18T07:29:29.944Z,100427.98
2019-03-18T07:31:59.236Z,100432.50
2019-03-18T07:34:28.415Z,100432.36
2019-03-18T07:36:57.706Z,100434.17
2019-03-18T07:39:26.740Z,100436.67
2019-03-18T07:41:56.125Z,100440.97
2019-03-18T07:44:25.201Z,100435.02
2019-03-18T07:46:54.459Z,100441.32
2019-03-18T07:49:23.668Z,100444.33
2019-03-18T07:51:52.843Z,100443.64
2019-03-18T07:54:32.246Z,100444.66
2019-03-18T07:56:52.889Z,100455.64
2019-03-18T07:59:21.890Z,100460.95
2019-03-18T08:01:50.895Z,100465.09
2019-03-18T08:04:19.994Z,100461.42
2019-03-18T08:06:49.239Z,100468.25
2019-03-18T08:09:18.501Z,100473.55
2019-03-18T08:11:47.587Z,100467.47
2019-03-18T08:14:16.938Z,100471.25
2019-03-18T08:16:46.128Z,100479.07
2019-03-18T08:19:15.368Z,100477.73
2019-03-18T08:21:44.656Z,100478.75
2019-03-18T08:24:13.998Z,100482.06
2019-03-18T08:26:43.028Z,100482.87
2019-03-18T08:29:12.324Z,100493.54
2019-03-18T08:31:41.365Z,100490.85
2019-03-18T08:34:10.687Z,100495.84
2019-03-18T08:36:39.899Z,100488.05
2019-03-18T08:39:09.124Z,100495.09
2019-03-18T08:41:38.353Z,100493.17
2019-03-18T08:44:08.321Z,100485.27
2019-03-18T08:46:37.668Z,100473.53
2019-03-18T08:49:07.046Z,100481.67
2019-03-18T08:51:36.232Z,100479.68
2019-03-18T08:54:05.353Z,100478.61
2019-03-18T08:56:34.757Z,100475.16
2019-03-18T08:59:03.841Z,100476.16
2019-03-18T09:01:33.060Z,100477.63
2019-03-18T09:04:02.349Z,100485.41
2019-03-18T09:06:31.472Z,100492.38
2019-03-18T09:09:00.895Z,100493.09
2019-03-18T09:11:30.008Z,100502.18
2019-03-18T09:13:59.205Z,100510.53
2019-03-18T09:16:28.532Z,100511.39
2019-03-18T09:19:07.995Z,100505.47
2019-03-18T09:21:28.974Z,100507.77
2019-03-18T09:23:58.031Z,100506.14
2019-03-18T09:26:27.289Z,100505.31
2019-03-18T09:28:56.422Z,100512.53
2019-03-18T09:31:25.754Z,100513.83
2019-03-18T09:33:54.947Z,100519.97
2019-03-18T09:36:24.202Z,100516.69
2019-03-18T09:38:53.572Z,100508.64
2019-03-18T09:41:22.648Z,100512.27
2019-03-18T09:43:51.706Z,100519.89
2019-03-18T09:46:21.397Z,100523.14
2019-03-18T09:48:50.458Z,100524.59
2019-03-18T09:51:19.533Z,100516.84
2019-03-18T09:53:48.722Z,100517.97
2019-03-18T09:56:17.929Z,100524.03
2019-03-18T09:58:47.175Z,100528.43
2019-03-18T10:01:16.385Z,100532.90
2019-03-18T10:03:45.480Z,100525.03
2019-03-18T10:06:14.838Z,100534.52
2019-03-18T10:08:44.037Z,100533.97
2019-03-18T10:11:15.340Z,100535.23
2019-03-18T10:13:44.357Z,100534.95
2019-03-18T10:16:13.569Z,100532.94
2019-03-18T10:18:42.986Z,100539.73
2019-03-18T10:21:12.104Z,100536.23
2019-03-18T10:23:41.402Z,100543.20
2019-03-18T10:26:10.571Z,100543.98
2019-03-18T10:28:39.807Z,100549.58
2019-03-18T10:31:09.136Z,100540.97
2019-03-18T10:33:38.197Z,100540.27
2019-03-18T10:36:07.413Z,100536.45
2019-03-18T10:38:36.614Z,100543.08
2019-03-18T10:41:06.646Z,100549.31
2019-03-18T10:43:35.962Z,100534.16
2019-03-18T10:46:05.434Z,100548.84
2019-03-18T10:48:34.563Z,100546.52
2019-03-18T10:51:03.821Z,100547.38
2019-03-18T10:53:33.124Z,100547.91
2019-03-18T10:56:07.734Z,100539.75
2019-03-18T10:58:32.928Z,100552.59
2019-03-18T11:01:01.981Z,100556.41
2019-03-18T11:03:32.072Z,100545.48
2019-03-18T11:06:01.543Z,100544.74
2019-03-18T11:08:30.923Z,100543.64
2019-03-18T11:11:00.408Z,100537.20
2019-03-18T11:13:29.683Z,100533.38
2019-03-18T11:15:58.993Z,100537.69
2019-03-18T11:18:28.178Z,100541.76
2019-03-18T11:20:58.199Z,100551.66
2019-03-18T11:23:27.697Z,100544.02
2019-03-18T11:25:56.731Z,100550.54
2019-03-18T11:28:25.965Z,100539.83
2019-03-18T11:30:55.337Z,100542.37
2019-03-18T11:33:24.406Z,100550.71
2019-03-18T11:35:55.760Z,100542.95
2019-03-18T11:38:25.829Z,100548.61
2019-03-18T11:40:55.046Z,100548.75
2019-03-18T11:43:24.110Z,100539.35
2019-03-18T11:45:53.536Z,100546.01
2019-03-18T11:48:22.561Z,100545.92
2019-03-18T11:50:51.960Z,100545.61
2019-03-18T11:53:21.388Z,100548.41
2019-03-18T11:55:50.425Z,100548.59
2019-03-18T11:58:19.573Z,100548.31
2019-03-18T12:00:48.773Z,100554.37
2019-03-18T12:03:17.936Z,100539.14
2019-03-18T12:05:47.319Z,100545.45
2019-03-18T12:08:16.406Z,100546.16
2019-03-18T12:10:45.782Z,100539.13
2019-03-18T12:13:14.816Z,100541.47
2019-03-18T12:15:44.070Z,100546.61
2019-03-18T12:18:13.460Z,100556.98
2019-03-18T12:20:42.779Z,100542.39
2019-03-18T12:23:11.840Z,100551.69
2019-03-18T12:25:40.911Z,100549.39
2019-03-18T12:28:10.267Z,100552.53
2019-03-18T12:30:39.461Z,100560.84
2019-03-18T12:33:08.649Z,100550.88
2019-03-18T12:35:37.910Z,100548.05
2019-03-18T12:38:07.132Z,100554.39
2019-03-18T12:40:36.346Z,100548.48
2019-03-18T12:43:05.640Z,100552.72
2019-03-18T12:45:34.671Z,100546.48
2019-03-18T12:48:04.120Z,100550.17
2019-03-18T12:50:49.365Z,100545.19
2019-03-18T12:53:04.360Z,100542.73
2019-03-18T12:55:33.582Z,100549.71
2019-03-18T12:58:02.787Z,100550.24
2019-03-18T13:00:32.309Z,100556.67
2019-03-18T13:03:01.338Z,100571.91
2019-03-18T13:05:30.385Z,100570.77
2019-03-18T13:07:59.824Z,100560.42
2019-03-18T13:10:28.876Z,100564.52
2019-03-18T13:12:58.471Z,100561.63
2019-03-18T13:15:27.538Z,100563.02
2019-03-18T13:17:56.781Z,100557.94
2019-03-18T13:20:26.233Z,100557.77
2019-03-18T13:22:55.300Z,100552.09
2019-03-18T13:25:26.259Z,100541.02
2019-03-18T13:27:55.478Z,100543.34
2019-03-18T13:30:24.701Z,100544.31
2019-03-18T13:32:53.961Z,100539.77
2019-03-18T13:35:23.113Z,100538.95
2019-03-18T13:37:52.404Z,100541.09
2019-03-18T13:40:21.622Z,100535.45
2019-03-18T13:42:50.890Z,100531.36
2019-03-18T13:45:19.993Z,100537.26
2019-03-18T13:47:49.269Z,100538.73
2019-03-18T13:50:18.387Z,100531.41
2019-03-18T13:52:47.652Z,100534.82
2019-03-18T13:55:16.865Z,100549.47
2019-03-18T13:57:46.288Z,100544.30
2019-03-18T14:00:15.724Z,100542.00
2019-03-18T14:02:44.914Z,100536.91
2019-03-18T14:05:14.092Z,100536.59
2019-03-18T14:07:43.257Z,100544.50
2019-03-18T14:10:13.475Z,100530.38
2019-03-18T14:12:42.636Z,100542.57
2019-03-18T14:15:13.802Z,100540.53
2019-03-18T14:17:42.819Z,100534.20
2019-03-18T14:20:13.994Z,100530.38
2019-03-18T14:22:43.126Z,100534.31
2019-03-18T14:25:12.674Z,100538.03
2019-03-18T14:27:41.694Z,100536.56
2019-03-18T14:30:13.757Z,100535.55
2019-03-18T14:32:43.006Z,100532.88
2019-03-18T14:35:12.705Z,100533.36
2019-03-18T14:37:42.003Z,100529.18
2019-03-18T14:40:12.542Z,100536.14
2019-03-18T14:42:41.811Z,100528.30
2019-03-18T14:45:13.596Z,100529.11
2019-03-18T14:47:42.641Z,100530.59
2019-03-18T14:50:12.054Z,100529.05
2019-03-18T14:52:41.118Z,100526.13
2019-03-18T14:55:10.973Z,100530.64
2019-03-18T14:57:40.215Z,100524.60
2019-03-18T15:00:19.117Z,100528.19
2019-03-18T15:02:48.365Z,100537.34
2019-03-18T15:05:17.869Z,100518.81
2019-03-18T15:07:46.972Z,100524.54
2019-03-18T15:10:16.779Z,100525.41
2019-03-18T15:12:46.341Z,100513.30
2019-03-18T15:15:15.799Z,100509.70
2019-03-18T15:17:45.468Z,100509.61
2019-03-18T15:20:14.881Z,100504.28
2019-03-18T15:22:44.144Z,100509.08
2019-03-18T15:25:24.839Z,100514.18
2019-03-18T15:27:55.743Z,100513.06
2019-03-18T15:30:24.829Z,100513.44
2019-03-18T15:32:54.091Z,100518.40
2019-03-18T15:35:23.121Z,100519.76
2019-03-18T15:37:52.318Z,100520.80
2019-03-18T15:40:21.494Z,100524.95
2019-03-18T15:42:50.549Z,100533.07
2019-03-18T15:45:19.809Z,100530.52
2019-03-18T15:47:49.083Z,100536.14
2019-03-18T15:50:19.660Z,100548.56
2019-03-18T15:52:48.785Z,100552.47
2019-03-18T15:55:18.018Z,100561.89
2019-03-18T15:57:47.745Z,100569.42
2019-03-18T16:00:18.034Z,100570.89
2019-03-18T16:02:48.892Z,100576.40
2019-03-18T16:05:18.001Z,100581.07
2019-03-18T16:07:47.505Z,100585.50
2019-03-18T16:10:17.219Z,100588.99
2019-03-18T16:12:47.142Z,100588.45
2019-03-18T16:15:17.252Z,100594.11
2019-03-18T16:17:46.861Z,100594.06
2019-03-18T16:20:16.675Z,100594.15
2019-03-18T16:22:47.231Z,100591.03
2019-03-18T16:25:17.335Z,100588.73
2019-03-18T16:27:46.991Z,100591.62
2019-03-18T16:30:16.423Z,100598.98
2019-03-18T16:32:45.589Z,100604.33
2019-03-18T16:35:16.146Z,100604.44
2019-03-18T16:37:45.448Z,100605.78
2019-03-18T16:40:14.654Z,100609.75
2019-03-18T16:42:44.465Z,100616.86
2019-03-18T16:45:14.319Z,100615.89
2019-03-18T16:47:43.496Z,100621.92
2019-03-18T16:50:14.161Z,100625.80
2019-03-18T16:52:43.257Z,100628.41
2019-03-18T16:55:12.942Z,100630.10
2019-03-18T16:57:42.330Z,100637.87
2019-03-18T17:00:16.953Z,100639.56
2019-03-18T17:02:46.493Z,100645.14
2019-03-18T17:05:18.463Z,100643.04
2019-03-18T17:07:50.144Z,100644.77
2019-03-18T17:10:19.564Z,100645.59
2019-03-18T17:12:49.276Z,100646.61
2019-03-18T17:15:19.898Z,100645.48
2019-03-18T17:17:49.379Z,100643.98
2019-03-18T17:20:18.575Z,100645.21
2019-03-18T17:22:49.900Z,100646.23
2019-03-18T17:25:19.235Z,100646.94
2019-03-18T17:27:48.356Z,100647.92
2019-03-18T17:30:18.390Z,100651.61
2019-03-18T17:32:47.673Z,100653.16
2019-03-18T17:35:16.857Z,100655.34
2019-03-18T17:37:46.359Z,100659.38
2019-03-18T17:40:15.493Z,100667.19
2019-03-18T17:42:44.780Z,100670.06
2019-03-18T17:45:14.418Z,100680.81
2019-03-18T17:47:43.849Z,100670.45
2019-03-18T17:50:15.376Z,100673.61
2019-03-18T17:52:44.504Z,100682.59
2019-03-18T17:55:13.668Z,100681.05
2019-03-18T17:57:42.778Z,100699.27
2019-03-18T18:00:16.877Z,100700.95
2019-03-18T18:02:46.095Z,100706.64
2019-03-18T18:05:15.433Z,100717.84
2019-03-18T18:07:44.477Z,100739.52
2019-03-18T18:10:13.828Z,100744.05
2019-03-18T18:12:43.559Z,100752.45
2019-03-18T18:15:13.117Z,100753.48
2019-03-18T18:17:42.213Z,100755.98
2019-03-18T18:20:11.456Z,100759.20
2019-03-18T18:22:41.153Z,100753.69
2019-03-18T18:25:10.681Z,100746.72
2019-03-18T18:27:41.313Z,100747.73
2019-03-18T18:30:10.480Z,100748.73
2019-03-18T18:32:39.639Z,100757.27
2019-03-18T18:35:11.676Z,100761.92
2019-03-18T18:37:40.826Z,100765.59
2019-03-18T18:40:11.248Z,100771.09
2019-03-18T18:42:40.370Z,100766.78
2019-03-18T18:45:10.937Z,100771.61
2019-03-18T18:47:40.115Z,100772.63
2019-03-18T18:50:10.002Z,100770.29
2019-03-18T18:52:39.341Z,100769.14
2019-03-18T18:55:08.676Z,100759.11
2019-03-18T18:57:38.016Z,100762.97
2019-03-18T19:00:08.913Z,100762.78
2019-03-18T19:02:38.145Z,100771.79
2019-03-18T19:05:08.698Z,100776.13
2019-03-18T19:07:37.944Z,100772.78
2019-03-18T19:10:08.088Z,100771.26
2019-03-18T19:12:37.147Z,100772.92
2019-03-18T19:15:08.936Z,100776.39
2019-03-18T19:17:38.363Z,100777.77
2019-03-18T19:20:08.903Z,100784.91
2019-03-18T19:22:38.377Z,100789.05
2019-03-18T19:25:09.776Z,100799.05
2019-03-18T19:27:39.251Z,100791.19
2019-03-18T19:30:11.418Z,100803.16
2019-03-18T19:32:40.537Z,100802.80
2019-03-18T19:35:10.653Z,100807.85
2019-03-18T19:37:39.988Z,100809.13
2019-03-18T19:40:11.584Z,100812.59
2019-03-18T19:42:41.118Z,100812.22
2019-03-18T19:45:11.937Z,100816.36
2019-03-18T19:47:41.111Z,100819.49
2019-03-18T19:50:12.934Z,100815.81
2019-03-18T19:52:42.059Z,100815.44
2019-03-18T19:55:11.474Z,100814.09
2019-03-18T19:57:40.589Z,100812.06
2019-03-18T20:00:13.134Z,100820.03
2019-03-18T20:02:42.659Z,100821.83
2019-03-18T20:05:15.761Z,100826.56
2019-03-18T20:07:43.101Z,100826.38
2019-03-18T20:10:12.818Z,100830.31
2019-03-18T20:12:41.915Z,100834.31
2019-03-18T20:15:12.678Z,100832.63
2019-03-18T20:17:42.255Z,100835.75
2019-03-18T20:20:12.690Z,100847.03
2019-03-18T20:22:41.801Z,100840.17
2019-03-18T20:25:11.152Z,100846.92
2019-03-18T20:27:40.350Z,100847.29
2019-03-18T20:30:12.334Z,100851.92
2019-03-18T20:32:41.498Z,100854.39
2019-03-18T20:35:11.483Z,100859.00
2019-03-18T20:37:40.593Z,100858.27
2019-03-18T20:40:10.871Z,100858.61
2019-03-18T20:42:40.144Z,100862.75
2019-03-18T20:45:11.347Z,100863.47
2019-03-18T20:47:40.504Z,100857.24
2019-03-18T20:50:11.526Z,100860.66
2019-03-18T20:52:40.851Z,100865.17
2019-03-18T20:55:10.820Z,100867.57
2019-03-18T20:57:40.202Z,100880.12
2019-03-18T21:00:10.610Z,100877.56
2019-03-18T21:02:39.835Z,100877.86
2019-03-18T21:05:09.504Z,100875.49
2019-03-18T21:07:40.648Z,100871.17
2019-03-18T21:10:11.097Z,100872.53
2019-03-18T21:12:41.519Z,100882.67
2019-03-18T21:15:10.961Z,100888.94
2019-03-18T21:17:40.021Z,100891.51
2019-03-18T21:20:11.545Z,100897.54
2019-03-18T21:22:40.717Z,100899.62
2019-03-18T21:25:09.803Z,100901.94
2019-03-18T21:27:38.873Z,100900.76
2019-03-18T21:30:08.807Z,100907.25
2019-03-18T21:32:38.116Z,100912.42
2019-03-18T21:35:07.495Z,100912.42
2019-03-18T21:37:36.604Z,100910.53
2019-03-18T21:40:06.905Z,100906.50
2019-03-18T21:42:35.986Z,100902.95
2019-03-18T21:45:05.541Z,100901.86
2019-03-18T21:47:34.659Z,100911.99
2019-03-18T21:50:03.883Z,100907.83
2019-03-18T21:52:33.198Z,100911.44
2019-03-18T21:55:02.296Z,100906.59
2019-03-18T21:57:31.408Z,100903.79
2019-03-18T22:00:00.665Z,100907.97
2019-03-18T22:02:30.105Z,100902.23
2019-03-18T22:04:59.191Z,100916.45
2019-03-18T22:07:28.399Z,100917.50
2019-03-18T22:09:57.468Z,100921.52
2019-03-18T22:12:26.605Z,100916.09
2019-03-18T22:14:56.031Z,100916.09
2019-03-18T22:17:25.256Z,100914.76
2019-03-18T22:19:54.470Z,100910.19
2019-03-18T22:22:23.679Z,100918.95
2019-03-18T22:24:52.744Z,100920.19
2019-03-18T22:27:22.090Z,100920.94
2019-03-18T22:29:51.164Z,100921.59
2019-03-18T22:32:20.432Z,100924.93
2019-03-18T22:34:49.574Z,100920.63
2019-03-18T22:37:18.945Z,100920.63
2019-03-18T22:39:47.994Z,100924.19
2019-03-18T22:42:17.289Z,100927.55
2019-03-18T22:44:46.590Z,100930.92
2019-03-18T22:47:15.655Z,100931.53
2019-03-18T22:49:45.270Z,100923.72
2019-03-18T22:52:14.751Z,100934.00
2019-03-18T22:54:43.964Z,100928.21
2019-03-18T22:57:13.017Z,100935.98
2019-03-18T22:59:42.492Z,100935.98
2019-03-18T23:02:11.570Z,100937.05
2019-03-18T23:04:40.680Z,100940.94
2019-03-18T23:07:10.055Z,100934.16
2019-03-18T23:09:39.171Z,100937.86
2019-03-18T23:12:08.235Z,100933.34
2019-03-18T23:14:37.332Z,100939.05
2019-03-18T23:17:06.356Z,100939.05
2019-03-18T23:19:35.686Z,100941.48
2019-03-18T23:22:04.886Z,100943.60
2019-03-18T23:24:34.234Z,100943.60
2019-03-18T23:27:03.278Z,100947.35
2019-03-18T23:29:33.394Z,100945.27
2019-03-18T23:32:02.694Z,100950.72
2019-03-18T23:34:31.975Z,100945.27
2019-03-18T23:37:01.433Z,100949.16
2019-03-18T23:39:30.499Z,100952.80
2019-03-18T23:41:59.558Z,100952.80
2019-03-18T23:44:28.740Z,100950.23
2019-03-18T23:46:58.107Z,100947.86
2019-03-18T23:49:27.227Z,100956.45
2019-03-18T23:51:56.382Z,100960.38
2019-03-18T23:54:25.742Z,100960.70
2019-03-18T23:56:55.000Z,100955.90
2019-03-18T23:59:24.054Z,100957.14
